sensor_id;sensor_type;location;lat;lon;timestamp;temperature;humidity
4453;DHT22;2239;48.152;11.584;2022-12-29T00:01:31;5.20;96.60
4453;DHT22;2239;48.152;11.584;2022-12-29T00:03:56;5.20;96.50
4453;DHT22;2239;48.152;11.584;2022-12-29T00:06:22;5.20;96.50
4453;DHT22;2239;48.152;11.584;2022-12-29T00:08:48;5.20;96.50
4453;DHT22;2239;48.152;11.584;2022-12-29T00:11:17;5.20;96.40
4453;DHT22;2239;48.152;11.584;2022-12-29T00:13:43;5.20;96.40
4453;DHT22;2239;48.152;11.584;2022-12-29T00:16:28;5.20;96.30
4453;DHT22;2239;48.152;11.584;2022-12-29T00:18:54;5.20;96.30
4453;DHT22;2239;48.152;11.584;2022-12-29T00:21:21;5.20;96.20
4453;DHT22;2239;48.152;11.584;2022-12-29T00:24:15;5.20;96.10
4453;DHT22;2239;48.152;11.584;2022-12-29T00:29:42;5.20;96.10
4453;DHT22;2239;48.152;11.584;2022-12-29T00:32:27;5.20;95.90
4453;DHT22;2239;48.152;11.584;2022-12-29T00:35:17;5.20;95.90
4453;DHT22;2239;48.152;11.584;2022-12-29T00:37:46;5.20;95.80
4453;DHT22;2239;48.152;11.584;2022-12-29T00:40:31;5.20;95.90
4453;DHT22;2239;48.152;11.584;2022-12-29T00:43:16;5.20;95.90
4453;DHT22;2239;48.152;11.584;2022-12-29T00:46:00;5.20;95.90
4453;DHT22;2239;48.152;11.584;2022-12-29T00:48:26;5.10;95.80
4453;DHT22;2239;48.152;11.584;2022-12-29T00:51:10;5.10;95.70
4453;DHT22;2239;48.152;11.584;2022-12-29T00:53:35;5.10;95.70
4453;DHT22;2239;48.152;11.584;2022-12-29T00:56:01;5.20;95.80
4453;DHT22;2239;48.152;11.584;2022-12-29T00:58:30;5.10;95.70
4453;DHT22;2239;48.152;11.584;2022-12-29T01:01:07;5.10;95.70
4453;DHT22;2239;48.152;11.584;2022-12-29T01:03:34;5.10;95.60
4453;DHT22;2239;48.152;11.584;2022-12-29T01:06:02;5.10;95.60
4453;DHT22;2239;48.152;11.584;2022-12-29T01:08:28;5.10;95.50
4453;DHT22;2239;48.152;11.584;2022-12-29T01:11:07;5.10;95.50
4453;DHT22;2239;48.152;11.584;2022-12-29T01:13:33;5.10;95.40
4453;DHT22;2239;48.152;11.584;2022-12-29T01:15:59;5.10;95.30
4453;DHT22;2239;48.152;11.584;2022-12-29T01:18:25;5.20;95.30
4453;DHT22;2239;48.152;11.584;2022-12-29T01:21:03;5.20;95.10
4453;DHT22;2239;48.152;11.584;2022-12-29T01:23:30;5.20;95.20
4453;DHT22;2239;48.152;11.584;2022-12-29T01:25:56;5.20;95.00
4453;DHT22;2239;48.152;11.584;2022-12-29T01:28:22;5.20;95.10
4453;DHT22;2239;48.152;11.584;2022-12-29T01:30:48;5.20;94.90
4453;DHT22;2239;48.152;11.584;2022-12-29T01:33:14;5.20;95.30
4453;DHT22;2239;48.152;11.584;2022-12-29T01:35:40;5.20;95.00
4453;DHT22;2239;48.152;11.584;2022-12-29T01:38:05;5.20;95.00
4453;DHT22;2239;48.152;11.584;2022-12-29T01:40:31;5.20;94.80
4453;DHT22;2239;48.152;11.584;2022-12-29T01:42:57;5.20;94.80
4453;DHT22;2239;48.152;11.584;2022-12-29T01:45:23;5.20;94.70
4453;DHT22;2239;48.152;11.584;2022-12-29T01:47:57;5.30;94.60
4453;DHT22;2239;48.152;11.584;2022-12-29T01:50:32;5.30;94.60
4453;DHT22;2239;48.152;11.584;2022-12-29T01:52:59;5.30;94.60
4453;DHT22;2239;48.152;11.584;2022-12-29T01:55:29;5.30;94.50
4453;DHT22;2239;48.152;11.584;2022-12-29T01:57:59;5.30;94.20
4453;DHT22;2239;48.152;11.584;2022-12-29T02:00:26;5.40;94.30
4453;DHT22;2239;48.152;11.584;2022-12-29T02:02:53;5.40;94.30
4453;DHT22;2239;48.152;11.584;2022-12-29T02:07:54;5.30;94.30
4453;DHT22;2239;48.152;11.584;2022-12-29T02:10:21;5.30;94.30
4453;DHT22;2239;48.152;11.584;2022-12-29T02:12:49;5.30;94.40
4453;DHT22;2239;48.152;11.584;2022-12-29T02:15:15;5.30;94.40
4453;DHT22;2239;48.152;11.584;2022-12-29T02:18:06;5.20;94.40
4453;DHT22;2239;48.152;11.584;2022-12-29T02:43:30;5.50;93.20
4453;DHT22;2239;48.152;11.584;2022-12-29T02:48:49;5.60;92.80
4453;DHT22;2239;48.152;11.584;2022-12-29T02:51:25;5.60;92.80
4453;DHT22;2239;48.152;11.584;2022-12-29T02:53:53;5.60;92.70
4453;DHT22;2239;48.152;11.584;2022-12-29T02:56:38;5.60;92.60
4453;DHT22;2239;48.152;11.584;2022-12-29T02:59:04;5.60;92.80
4453;DHT22;2239;48.152;11.584;2022-12-29T03:06:52;5.60;92.60
4453;DHT22;2239;48.152;11.584;2022-12-29T03:12:25;5.60;92.40
4453;DHT22;2239;48.152;11.584;2022-12-29T03:15:21;5.60;92.40
4453;DHT22;2239;48.152;11.584;2022-12-29T03:18:16;5.70;92.30
4453;DHT22;2239;48.152;11.584;2022-12-29T03:20:52;5.70;92.10
4453;DHT22;2239;48.152;11.584;2022-12-29T03:23:20;5.80;92.10
4453;DHT22;2239;48.152;11.584;2022-12-29T03:25:51;5.80;91.90
4453;DHT22;2239;48.152;11.584;2022-12-29T03:28:30;5.80;91.90
4453;DHT22;2239;48.152;11.584;2022-12-29T03:30:58;5.90;91.60
4453;DHT22;2239;48.152;11.584;2022-12-29T03:33:26;5.90;91.50
4453;DHT22;2239;48.152;11.584;2022-12-29T03:35:59;6.00;91.20
4453;DHT22;2239;48.152;11.584;2022-12-29T03:41:07;6.10;90.90
4453;DHT22;2239;48.152;11.584;2022-12-29T03:43:33;6.10;90.80
4453;DHT22;2239;48.152;11.584;2022-12-29T03:45:59;6.20;90.70
4453;DHT22;2239;48.152;11.584;2022-12-29T03:48:25;6.20;90.50
4453;DHT22;2239;48.152;11.584;2022-12-29T03:50:50;6.30;90.40
4453;DHT22;2239;48.152;11.584;2022-12-29T03:53:16;6.30;90.30
4453;DHT22;2239;48.152;11.584;2022-12-29T03:55:42;6.30;90.30
4453;DHT22;2239;48.152;11.584;2022-12-29T03:58:07;6.40;90.10
4453;DHT22;2239;48.152;11.584;2022-12-29T04:00:33;6.40;89.90
4453;DHT22;2239;48.152;11.584;2022-12-29T04:02:58;6.50;89.30
4453;DHT22;2239;48.152;11.584;2022-12-29T04:05:24;6.50;88.80
4453;DHT22;2239;48.152;11.584;2022-12-29T04:07:50;6.60;88.80
4453;DHT22;2239;48.152;11.584;2022-12-29T04:10:17;6.60;88.10
4453;DHT22;2239;48.152;11.584;2022-12-29T04:12:43;6.60;88.00
4453;DHT22;2239;48.152;11.584;2022-12-29T04:15:09;6.70;88.10
4453;DHT22;2239;48.152;11.584;2022-12-29T04:17:35;6.70;87.70
4453;DHT22;2239;48.152;11.584;2022-12-29T04:20:01;6.70;87.50
4453;DHT22;2239;48.152;11.584;2022-12-29T04:22:44;6.70;87.20
4453;DHT22;2239;48.152;11.584;2022-12-29T04:25:10;6.70;87.30
4453;DHT22;2239;48.152;11.584;2022-12-29T04:27:36;6.80;86.80
4453;DHT22;2239;48.152;11.584;2022-12-29T04:30:01;6.80;86.70
4453;DHT22;2239;48.152;11.584;2022-12-29T04:32:27;6.80;86.70
4453;DHT22;2239;48.152;11.584;2022-12-29T04:34:53;6.80;87.00
4453;DHT22;2239;48.152;11.584;2022-12-29T04:37:18;6.80;87.30
4453;DHT22;2239;48.152;11.584;2022-12-29T04:39:44;6.80;86.80
4453;DHT22;2239;48.152;11.584;2022-12-29T04:42:10;6.80;86.90
4453;DHT22;2239;48.152;11.584;2022-12-29T04:44:35;6.80;87.00
4453;DHT22;2239;48.152;11.584;2022-12-29T04:47:01;6.80;86.60
4453;DHT22;2239;48.152;11.584;2022-12-29T04:49:26;6.90;86.30
4453;DHT22;2239;48.152;11.584;2022-12-29T04:51:52;6.90;86.20
4453;DHT22;2239;48.152;11.584;2022-12-29T04:54:18;6.90;86.00
4453;DHT22;2239;48.152;11.584;2022-12-29T04:56:43;6.90;86.00
4453;DHT22;2239;48.152;11.584;2022-12-29T04:59:09;6.90;85.90
4453;DHT22;2239;48.152;11.584;2022-12-29T05:01:34;6.90;85.40
4453;DHT22;2239;48.152;11.584;2022-12-29T05:04:00;7.00;85.50
4453;DHT22;2239;48.152;11.584;2022-12-29T05:06:26;7.00;85.20
4453;DHT22;2239;48.152;11.584;2022-12-29T05:08:51;7.00;85.60
4453;DHT22;2239;48.152;11.584;2022-12-29T05:11:17;7.00;85.60
4453;DHT22;2239;48.152;11.584;2022-12-29T05:13:45;7.00;85.20
4453;DHT22;2239;48.152;11.584;2022-12-29T05:16:11;7.00;85.30
4453;DHT22;2239;48.152;11.584;2022-12-29T05:18:37;7.00;85.30
4453;DHT22;2239;48.152;11.584;2022-12-29T05:21:03;7.00;85.20
4453;DHT22;2239;48.152;11.584;2022-12-29T05:23:29;7.00;85.40
4453;DHT22;2239;48.152;11.584;2022-12-29T05:25:54;7.00;85.30
4453;DHT22;2239;48.152;11.584;2022-12-29T05:28:20;7.00;85.60
4453;DHT22;2239;48.152;11.584;2022-12-29T05:30:51;7.00;85.50
4453;DHT22;2239;48.152;11.584;2022-12-29T05:33:18;7.00;85.50
4453;DHT22;2239;48.152;11.584;2022-12-29T05:35:44;7.00;85.60
4453;DHT22;2239;48.152;11.584;2022-12-29T05:38:09;7.10;85.50
4453;DHT22;2239;48.152;11.584;2022-12-29T05:40:35;7.10;85.50
4453;DHT22;2239;48.152;11.584;2022-12-29T05:43:01;7.00;85.40
4453;DHT22;2239;48.152;11.584;2022-12-29T05:45:26;7.00;85.50
4453;DHT22;2239;48.152;11.584;2022-12-29T05:47:52;7.00;85.70
4453;DHT22;2239;48.152;11.584;2022-12-29T05:50:18;7.00;85.80
4453;DHT22;2239;48.152;11.584;2022-12-29T05:52:43;7.00;86.10
4453;DHT22;2239;48.152;11.584;2022-12-29T05:55:10;7.00;86.10
4453;DHT22;2239;48.152;11.584;2022-12-29T05:57:35;7.00;86.50
4453;DHT22;2239;48.152;11.584;2022-12-29T06:00:05;7.00;86.60
4453;DHT22;2239;48.152;11.584;2022-12-29T06:02:31;6.90;86.70
4453;DHT22;2239;48.152;11.584;2022-12-29T06:04:57;6.90;87.00
4453;DHT22;2239;48.152;11.584;2022-12-29T06:07:22;6.90;87.10
4453;DHT22;2239;48.152;11.584;2022-12-29T06:09:48;6.90;87.50
4453;DHT22;2239;48.152;11.584;2022-12-29T06:12:13;6.80;87.50
4453;DHT22;2239;48.152;11.584;2022-12-29T06:14:39;6.80;87.50
4453;DHT22;2239;48.152;11.584;2022-12-29T06:17:05;6.90;87.30
4453;DHT22;2239;48.152;11.584;2022-12-29T06:19:30;6.90;87.40
4453;DHT22;2239;48.152;11.584;2022-12-29T06:21:56;6.90;87.60
4453;DHT22;2239;48.152;11.584;2022-12-29T06:24:22;6.90;87.60
4453;DHT22;2239;48.152;11.584;2022-12-29T06:26:47;6.90;87.60
4453;DHT22;2239;48.152;11.584;2022-12-29T06:29:13;6.90;87.80
4453;DHT22;2239;48.152;11.584;2022-12-29T06:31:42;6.80;87.50
4453;DHT22;2239;48.152;11.584;2022-12-29T06:34:08;6.80;87.50
4453;DHT22;2239;48.152;11.584;2022-12-29T06:36:34;6.80;87.30
4453;DHT22;2239;48.152;11.584;2022-12-29T06:39:00;6.80;87.50
4453;DHT22;2239;48.152;11.584;2022-12-29T06:41:26;6.80;87.80
4453;DHT22;2239;48.152;11.584;2022-12-29T06:43:51;6.80;88.20
4453;DHT22;2239;48.152;11.584;2022-12-29T06:46:17;6.80;88.10
4453;DHT22;2239;48.152;11.584;2022-12-29T06:48:43;6.80;88.30
4453;DHT22;2239;48.152;11.584;2022-12-29T06:51:08;6.80;88.20
4453;DHT22;2239;48.152;11.584;2022-12-29T06:53:34;6.80;88.20
4453;DHT22;2239;48.152;11.584;2022-12-29T06:55:59;6.80;88.30
4453;DHT22;2239;48.152;11.584;2022-12-29T06:58:25;6.80;88.40
4453;DHT22;2239;48.152;11.584;2022-12-29T07:00:51;6.80;88.40
4453;DHT22;2239;48.152;11.584;2022-12-29T07:03:16;6.80;88.60
4453;DHT22;2239;48.152;11.584;2022-12-29T07:05:42;6.70;88.80
4453;DHT22;2239;48.152;11.584;2022-12-29T07:08:07;6.80;88.80
4453;DHT22;2239;48.152;11.584;2022-12-29T07:10:33;6.80;88.90
4453;DHT22;2239;48.152;11.584;2022-12-29T07:12:59;6.70;88.70
4453;DHT22;2239;48.152;11.584;2022-12-29T07:15:25;6.70;88.70
4453;DHT22;2239;48.152;11.584;2022-12-29T07:17:50;6.70;88.90
4453;DHT22;2239;48.152;11.584;2022-12-29T07:20:16;6.70;88.70
4453;DHT22;2239;48.152;11.584;2022-12-29T07:22:42;6.70;88.80
4453;DHT22;2239;48.152;11.584;2022-12-29T07:25:08;6.70;89.30
4453;DHT22;2239;48.152;11.584;2022-12-29T07:27:34;6.80;88.10
4453;DHT22;2239;48.152;11.584;2022-12-29T07:29:59;6.80;88.10
4453;DHT22;2239;48.152;11.584;2022-12-29T07:32:25;6.90;88.00
4453;DHT22;2239;48.152;11.584;2022-12-29T07:34:50;6.90;87.60
4453;DHT22;2239;48.152;11.584;2022-12-29T07:37:16;6.90;87.70
4453;DHT22;2239;48.152;11.584;2022-12-29T07:39:42;6.90;87.60
4453;DHT22;2239;48.152;11.584;2022-12-29T07:42:08;7.00;87.60
4453;DHT22;2239;48.152;11.584;2022-12-29T07:44:34;7.00;87.10
4453;DHT22;2239;48.152;11.584;2022-12-29T07:46:59;7.00;87.20
4453;DHT22;2239;48.152;11.584;2022-12-29T07:49:25;7.10;87.00
4453;DHT22;2239;48.152;11.584;2022-12-29T07:51:51;7.10;87.10
4453;DHT22;2239;48.152;11.584;2022-12-29T07:54:16;7.20;87.20
4453;DHT22;2239;48.152;11.584;2022-12-29T07:56:44;7.30;86.90
4453;DHT22;2239;48.152;11.584;2022-12-29T07:59:10;7.40;86.30
4453;DHT22;2239;48.152;11.584;2022-12-29T08:01:37;8.40;86.10
4453;DHT22;2239;48.152;11.584;2022-12-29T08:04:03;11.40;75.90
4453;DHT22;2239;48.152;11.584;2022-12-29T08:06:29;14.40;64.50
4453;DHT22;2239;48.152;11.584;2022-12-29T08:08:56;16.50;53.20
4453;DHT22;2239;48.152;11.584;2022-12-29T08:11:22;18.40;46.40
4453;DHT22;2239;48.152;11.584;2022-12-29T08:13:48;19.60;41.20
4453;DHT22;2239;48.152;11.584;2022-12-29T08:16:13;19.80;38.20
4453;DHT22;2239;48.152;11.584;2022-12-29T08:18:39;19.70;36.30
4453;DHT22;2239;48.152;11.584;2022-12-29T08:21:05;19.10;35.60
4453;DHT22;2239;48.152;11.584;2022-12-29T08:23:31;18.20;36.10
4453;DHT22;2239;48.152;11.584;2022-12-29T08:25:59;17.60;37.50
4453;DHT22;2239;48.152;11.584;2022-12-29T08:28:25;17.30;37.90
4453;DHT22;2239;48.152;11.584;2022-12-29T08:30:50;16.90;38.50
4453;DHT22;2239;48.152;11.584;2022-12-29T08:33:16;16.60;38.80
4453;DHT22;2239;48.152;11.584;2022-12-29T08:35:42;16.40;38.80
4453;DHT22;2239;48.152;11.584;2022-12-29T08:38:07;16.10;39.50
4453;DHT22;2239;48.152;11.584;2022-12-29T08:40:33;15.50;39.80
4453;DHT22;2239;48.152;11.584;2022-12-29T08:42:59;15.10;41.00
4453;DHT22;2239;48.152;11.584;2022-12-29T08:45:24;15.80;41.00
4453;DHT22;2239;48.152;11.584;2022-12-29T08:47:50;16.30;39.40
4453;DHT22;2239;48.152;11.584;2022-12-29T08:50:16;16.90;38.80
4453;DHT22;2239;48.152;11.584;2022-12-29T08:52:41;15.60;38.10
4453;DHT22;2239;48.152;11.584;2022-12-29T08:55:07;14.60;40.30
4453;DHT22;2239;48.152;11.584;2022-12-29T08:57:33;14.00;41.20
4453;DHT22;2239;48.152;11.584;2022-12-29T08:59:59;12.80;42.80
4453;DHT22;2239;48.152;11.584;2022-12-29T09:02:24;12.30;44.60
4453;DHT22;2239;48.152;11.584;2022-12-29T09:04:51;12.20;45.10
4453;DHT22;2239;48.152;11.584;2022-12-29T09:07:16;12.20;45.60
4453;DHT22;2239;48.152;11.584;2022-12-29T09:09:42;12.40;45.70
4453;DHT22;2239;48.152;11.584;2022-12-29T09:12:08;12.60;46.00
4453;DHT22;2239;48.152;11.584;2022-12-29T09:14:33;13.50;45.40
4453;DHT22;2239;48.152;11.584;2022-12-29T09:16:59;15.00;42.40
4453;DHT22;2239;48.152;11.584;2022-12-29T09:19:43;16.20;40.30
4453;DHT22;2239;48.152;11.584;2022-12-29T09:22:09;15.90;40.20
4453;DHT22;2239;48.152;11.584;2022-12-29T09:24:34;15.20;40.30
4453;DHT22;2239;48.152;11.584;2022-12-29T09:27:00;15.30;41.00
4453;DHT22;2239;48.152;11.584;2022-12-29T09:29:26;14.80;41.00
4453;DHT22;2239;48.152;11.584;2022-12-29T09:31:51;14.40;42.60
4453;DHT22;2239;48.152;11.584;2022-12-29T09:34:17;14.30;42.90
4453;DHT22;2239;48.152;11.584;2022-12-29T09:36:42;13.90;43.30
4453;DHT22;2239;48.152;11.584;2022-12-29T09:39:08;13.70;44.40
4453;DHT22;2239;48.152;11.584;2022-12-29T09:44:26;15.20;44.30
4453;DHT22;2239;48.152;11.584;2022-12-29T09:46:57;16.30;41.40
4453;DHT22;2239;48.152;11.584;2022-12-29T09:51:54;14.00;42.60
4453;DHT22;2239;48.152;11.584;2022-12-29T09:54:38;12.70;44.90
4453;DHT22;2239;48.152;11.584;2022-12-29T09:57:15;11.90;46.80
4453;DHT22;2239;48.152;11.584;2022-12-29T09:59:42;11.40;48.60
4453;DHT22;2239;48.152;11.584;2022-12-29T10:04:56;10.90;50.20
4453;DHT22;2239;48.152;11.584;2022-12-29T10:07:45;10.80;50.50
4453;DHT22;2239;48.152;11.584;2022-12-29T10:10:37;10.70;50.80
4453;DHT22;2239;48.152;11.584;2022-12-29T10:18:53;10.50;50.90
4453;DHT22;2239;48.152;11.584;2022-12-29T10:24:34;10.50;50.60
4453;DHT22;2239;48.152;11.584;2022-12-29T10:27:01;10.50;51.10
4453;DHT22;2239;48.152;11.584;2022-12-29T10:29:33;10.60;51.00
4453;DHT22;2239;48.152;11.584;2022-12-29T10:32:05;10.60;50.50
4453;DHT22;2239;48.152;11.584;2022-12-29T10:34:37;10.70;50.30
4453;DHT22;2239;48.152;11.584;2022-12-29T10:40:38;10.90;50.40
4453;DHT22;2239;48.152;11.584;2022-12-29T10:43:18;11.10;50.40
4453;DHT22;2239;48.152;11.584;2022-12-29T10:45:46;11.20;50.10
4453;DHT22;2239;48.152;11.584;2022-12-29T10:48:23;11.50;50.40
4453;DHT22;2239;48.152;11.584;2022-12-29T10:50:51;12.00;49.30
4453;DHT22;2239;48.152;11.584;2022-12-29T10:53:24;12.80;49.40
4453;DHT22;2239;48.152;11.584;2022-12-29T10:55:51;13.20;47.40
4453;DHT22;2239;48.152;11.584;2022-12-29T10:58:18;13.30;46.40
4453;DHT22;2239;48.152;11.584;2022-12-29T11:00:50;13.30;46.80
4453;DHT22;2239;48.152;11.584;2022-12-29T11:06:17;13.70;45.80
4453;DHT22;2239;48.152;11.584;2022-12-29T11:09:01;14.70;44.70
4453;DHT22;2239;48.152;11.584;2022-12-29T11:11:33;15.30;43.60
4453;DHT22;2239;48.152;11.584;2022-12-29T11:14:29;15.30;41.90
4453;DHT22;2239;48.152;11.584;2022-12-29T11:17:01;16.10;41.30
4453;DHT22;2239;48.152;11.584;2022-12-29T11:19:34;17.00;40.00
4453;DHT22;2239;48.152;11.584;2022-12-29T11:22:20;17.50;38.90
4453;DHT22;2239;48.152;11.584;2022-12-29T11:24:47;18.20;38.20
4453;DHT22;2239;48.152;11.584;2022-12-29T11:27:20;19.50;36.70
4453;DHT22;2239;48.152;11.584;2022-12-29T11:29:48;20.40;33.90
4453;DHT22;2239;48.152;11.584;2022-12-29T11:32:21;21.00;32.50
4453;DHT22;2239;48.152;11.584;2022-12-29T11:34:48;21.20;31.10
4453;DHT22;2239;48.152;11.584;2022-12-29T11:37:29;21.60;31.10
4453;DHT22;2239;48.152;11.584;2022-12-29T11:40:04;21.20;30.40
4453;DHT22;2239;48.152;11.584;2022-12-29T11:45:26;19.80;31.60
4453;DHT22;2239;48.152;11.584;2022-12-29T11:48:01;19.00;32.30
4453;DHT22;2239;48.152;11.584;2022-12-29T11:50:32;18.90;33.20
4453;DHT22;2239;48.152;11.584;2022-12-29T11:53:20;18.30;33.50
4453;DHT22;2239;48.152;11.584;2022-12-29T11:55:54;18.70;34.30
4453;DHT22;2239;48.152;11.584;2022-12-29T11:58:27;19.30;33.20
4453;DHT22;2239;48.152;11.584;2022-12-29T12:00:54;20.10;33.30
4453;DHT22;2239;48.152;11.584;2022-12-29T12:03:24;21.40;32.40
4453;DHT22;2239;48.152;11.584;2022-12-29T12:06:02;22.00;30.00
4453;DHT22;2239;48.152;11.584;2022-12-29T12:08:38;21.60;29.40
4453;DHT22;2239;48.152;11.584;2022-12-29T12:11:21;21.90;29.80
4453;DHT22;2239;48.152;11.584;2022-12-29T12:14:01;22.00;29.50
4453;DHT22;2239;48.152;11.584;2022-12-29T12:16:40;22.40;29.30
4453;DHT22;2239;48.152;11.584;2022-12-29T12:21:59;22.20;29.10
4453;DHT22;2239;48.152;11.584;2022-12-29T12:27:20;21.10;29.30
4453;DHT22;2239;48.152;11.584;2022-12-29T12:34:59;19.00;32.10
4453;DHT22;2239;48.152;11.584;2022-12-29T12:37:59;18.70;33.60
4453;DHT22;2239;48.152;11.584;2022-12-29T12:40:53;19.30;33.60
4453;DHT22;2239;48.152;11.584;2022-12-29T12:52:09;18.10;36.70
4453;DHT22;2239;48.152;11.584;2022-12-29T12:55:02;17.40;37.10
4453;DHT22;2239;48.152;11.584;2022-12-29T13:00:21;16.00;40.40
4453;DHT22;2239;48.152;11.584;2022-12-29T13:03:21;15.60;41.70
4453;DHT22;2239;48.152;11.584;2022-12-29T13:17:15;15.00;44.60
4453;DHT22;2239;48.152;11.584;2022-12-29T13:20:11;14.80;44.60
4453;DHT22;2239;48.152;11.584;2022-12-29T13:28:38;14.70;45.70
4453;DHT22;2239;48.152;11.584;2022-12-29T13:31:30;14.70;46.10
4453;DHT22;2239;48.152;11.584;2022-12-29T13:34:10;14.60;46.20
4453;DHT22;2239;48.152;11.584;2022-12-29T13:37:04;14.50;46.40
4453;DHT22;2239;48.152;11.584;2022-12-29T13:39:42;14.50;47.50
4453;DHT22;2239;48.152;11.584;2022-12-29T13:42:09;14.40;47.20
4453;DHT22;2239;48.152;11.584;2022-12-29T13:47:33;14.20;48.20
4453;DHT22;2239;48.152;11.584;2022-12-29T13:50:01;14.20;48.70
4453;DHT22;2239;48.152;11.584;2022-12-29T13:55:37;14.00;49.80
4453;DHT22;2239;48.152;11.584;2022-12-29T14:06:30;13.80;53.80
4453;DHT22;2239;48.152;11.584;2022-12-29T14:08:58;13.70;54.40
4453;DHT22;2239;48.152;11.584;2022-12-29T14:11:38;13.70;55.00
4453;DHT22;2239;48.152;11.584;2022-12-29T14:14:31;13.70;55.90
4453;DHT22;2239;48.152;11.584;2022-12-29T14:17:11;13.60;56.40
4453;DHT22;2239;48.152;11.584;2022-12-29T14:19:42;13.50;56.80
4453;DHT22;2239;48.152;11.584;2022-12-29T14:22:10;13.50;57.70
4453;DHT22;2239;48.152;11.584;2022-12-29T14:24:42;13.50;58.20
4453;DHT22;2239;48.152;11.584;2022-12-29T14:34:56;13.30;58.80
4453;DHT22;2239;48.152;11.584;2022-12-29T14:37:35;13.10;58.70
4453;DHT22;2239;48.152;11.584;2022-12-29T14:40:23;13.10;58.40
4453;DHT22;2239;48.152;11.584;2022-12-29T14:42:54;13.00;56.10
4453;DHT22;2239;48.152;11.584;2022-12-29T14:47:49;12.70;54.60
4453;DHT22;2239;48.152;11.584;2022-12-29T14:50:34;12.60;54.60
4453;DHT22;2239;48.152;11.584;2022-12-29T14:53:04;12.50;54.70
4453;DHT22;2239;48.152;11.584;2022-12-29T14:55:55;12.40;55.30
4453;DHT22;2239;48.152;11.584;2022-12-29T14:58:31;12.30;55.50
4453;DHT22;2239;48.152;11.584;2022-12-29T15:00:59;12.30;55.40
4453;DHT22;2239;48.152;11.584;2022-12-29T15:03:50;12.20;55.50
4453;DHT22;2239;48.152;11.584;2022-12-29T15:06:18;12.10;55.40
4453;DHT22;2239;48.152;11.584;2022-12-29T15:08:54;12.10;55.70
4453;DHT22;2239;48.152;11.584;2022-12-29T15:11:40;12.00;55.80
4453;DHT22;2239;48.152;11.584;2022-12-29T15:14:30;12.00;55.60
4453;DHT22;2239;48.152;11.584;2022-12-29T15:16:57;12.00;55.60
4453;DHT22;2239;48.152;11.584;2022-12-29T15:19:24;11.90;56.40
4453;DHT22;2239;48.152;11.584;2022-12-29T15:21:50;11.80;56.20
4453;DHT22;2239;48.152;11.584;2022-12-29T15:24:17;11.80;55.90
4453;DHT22;2239;48.152;11.584;2022-12-29T15:26:46;11.70;56.00
4453;DHT22;2239;48.152;11.584;2022-12-29T15:29:32;11.60;56.20
4453;DHT22;2239;48.152;11.584;2022-12-29T15:34:37;11.50;56.30
4453;DHT22;2239;48.152;11.584;2022-12-29T15:37:07;11.40;57.10
4453;DHT22;2239;48.152;11.584;2022-12-29T15:39:33;11.40;56.90
4453;DHT22;2239;48.152;11.584;2022-12-29T15:42:46;11.40;57.20
4453;DHT22;2239;48.152;11.584;2022-12-29T15:45:14;11.40;57.40
4453;DHT22;2239;48.152;11.584;2022-12-29T15:47:42;11.40;57.70
4453;DHT22;2239;48.152;11.584;2022-12-29T15:50:26;11.40;57.90
4453;DHT22;2239;48.152;11.584;2022-12-29T15:52:53;11.40;58.50
4453;DHT22;2239;48.152;11.584;2022-12-29T15:55:27;11.40;59.00
4453;DHT22;2239;48.152;11.584;2022-12-29T15:57:58;11.40;59.40
4453;DHT22;2239;48.152;11.584;2022-12-29T16:00:35;11.50;59.50
4453;DHT22;2239;48.152;11.584;2022-12-29T16:03:05;11.40;59.30
4453;DHT22;2239;48.152;11.584;2022-12-29T16:05:34;11.50;59.50
4453;DHT22;2239;48.152;11.584;2022-12-29T16:08:00;11.40;58.70
4453;DHT22;2239;48.152;11.584;2022-12-29T16:10:36;11.30;58.70
4453;DHT22;2239;48.152;11.584;2022-12-29T16:15:51;11.30;59.20
4453;DHT22;2239;48.152;11.584;2022-12-29T16:18:26;11.30;59.50
4453;DHT22;2239;48.152;11.584;2022-12-29T16:20:53;11.30;59.80
4453;DHT22;2239;48.152;11.584;2022-12-29T16:23:24;11.20;60.00
4453;DHT22;2239;48.152;11.584;2022-12-29T16:25:51;11.20;60.50
4453;DHT22;2239;48.152;11.584;2022-12-29T16:28:22;11.20;60.90
4453;DHT22;2239;48.152;11.584;2022-12-29T16:31:04;11.20;62.00
4453;DHT22;2239;48.152;11.584;2022-12-29T16:33:51;11.20;62.20
4453;DHT22;2239;48.152;11.584;2022-12-29T16:36:32;11.10;63.20
4453;DHT22;2239;48.152;11.584;2022-12-29T16:42:34;11.10;64.40
4453;DHT22;2239;48.152;11.584;2022-12-29T16:50:37;11.10;66.20
4453;DHT22;2239;48.152;11.584;2022-12-29T16:53:05;11.10;66.80
4453;DHT22;2239;48.152;11.584;2022-12-29T16:55:32;11.00;67.60
4453;DHT22;2239;48.152;11.584;2022-12-29T16:57:59;11.00;68.30
4453;DHT22;2239;48.152;11.584;2022-12-29T17:00:27;11.00;69.10
4453;DHT22;2239;48.152;11.584;2022-12-29T17:02:57;11.00;69.90
4453;DHT22;2239;48.152;11.584;2022-12-29T17:05:24;10.90;71.00
4453;DHT22;2239;48.152;11.584;2022-12-29T17:07:50;10.90;71.90
4453;DHT22;2239;48.152;11.584;2022-12-29T17:10:16;10.90;72.80
4453;DHT22;2239;48.152;11.584;2022-12-29T17:12:44;10.90;73.30
4453;DHT22;2239;48.152;11.584;2022-12-29T17:15:15;11.00;73.60
4453;DHT22;2239;48.152;11.584;2022-12-29T17:17:45;11.00;74.00
4453;DHT22;2239;48.152;11.584;2022-12-29T17:20:17;10.90;74.40
4453;DHT22;2239;48.152;11.584;2022-12-29T17:22:43;10.90;75.10
4453;DHT22;2239;48.152;11.584;2022-12-29T17:25:14;11.00;75.50
4453;DHT22;2239;48.152;11.584;2022-12-29T17:27:46;10.90;75.80
4453;DHT22;2239;48.152;11.584;2022-12-29T17:30:18;10.90;76.50
4453;DHT22;2239;48.152;11.584;2022-12-29T17:33:33;10.90;77.00
4453;DHT22;2239;48.152;11.584;2022-12-29T17:35:38;10.90;77.40
4453;DHT22;2239;48.152;11.584;2022-12-29T17:38:20;10.90;77.90
4453;DHT22;2239;48.152;11.584;2022-12-29T17:40:46;10.80;78.50
4453;DHT22;2239;48.152;11.584;2022-12-29T17:43:13;10.90;78.90
4453;DHT22;2239;48.152;11.584;2022-12-29T17:45:40;10.80;78.80
4453;DHT22;2239;48.152;11.584;2022-12-29T17:48:14;10.80;79.70
4453;DHT22;2239;48.152;11.584;2022-12-29T17:50:40;10.80;79.90
4453;DHT22;2239;48.152;11.584;2022-12-29T17:53:10;10.80;80.20
4453;DHT22;2239;48.152;11.584;2022-12-29T17:55:37;10.80;80.30
4453;DHT22;2239;48.152;11.584;2022-12-29T17:58:21;10.80;80.70
4453;DHT22;2239;48.152;11.584;2022-12-29T18:00:50;10.80;81.00
4453;DHT22;2239;48.152;11.584;2022-12-29T18:03:18;10.80;81.80
4453;DHT22;2239;48.152;11.584;2022-12-29T18:05:45;10.80;81.80
4453;DHT22;2239;48.152;11.584;2022-12-29T18:08:11;10.80;81.80
4453;DHT22;2239;48.152;11.584;2022-12-29T18:10:37;10.80;81.60
4453;DHT22;2239;48.152;11.584;2022-12-29T18:13:04;10.80;81.60
4453;DHT22;2239;48.152;11.584;2022-12-29T18:15:32;10.70;81.70
4453;DHT22;2239;48.152;11.584;2022-12-29T18:18:13;10.70;82.00
4453;DHT22;2239;48.152;11.584;2022-12-29T18:20:41;10.70;80.10
4453;DHT22;2239;48.152;11.584;2022-12-29T18:25:58;10.60;78.10
4453;DHT22;2239;48.152;11.584;2022-12-29T18:28:25;10.50;77.40
4453;DHT22;2239;48.152;11.584;2022-12-29T18:30:51;10.40;77.40
4453;DHT22;2239;48.152;11.584;2022-12-29T18:33:19;10.40;76.80
4453;DHT22;2239;48.152;11.584;2022-12-29T18:35:58;10.30;76.20
4453;DHT22;2239;48.152;11.584;2022-12-29T18:38:25;10.30;76.60
4453;DHT22;2239;48.152;11.584;2022-12-29T18:40:51;10.30;75.80
4453;DHT22;2239;48.152;11.584;2022-12-29T18:43:18;10.30;75.20